Time;durP1;ratioP1;P1;durP2;ratioP2;P2;SDS_P1;SDS_P2;PMS_P1;PMS_P2;Temp;Humidity;BMP_temperature;BMP_pressure;BME280_temperature;BME280_humidity;BME280_pressure;Samples;Min_cycle;Max_cycle;Signal;HPM_P1;HPM_P2
2022/05/29 00:01:56;;;;;;;0.20;0.20;;;;;;;;;;5031503;28;20125;-65
2022/05/29 00:04:25;;;;;;;0.40;0.30;;;;;;;;;;5026931;28;20053;-66
2022/05/29 00:06:55;;;;;;;1.23;0.30;;;;;;;;;;5027995;28;20046;-65
2022/05/29 00:09:28;;;;;;;0.52;0.50;;;;;;;;;;5027877;28;20045;-65
2022/05/29 00:11:56;;;;;;;0.10;0.10;;;;;;;;;;5025193;28;20153;-65
2022/05/29 00:14:25;;;;;;;0.60;0.60;;;;;;;;;;5033634;28;20561;-65
2022/05/29 00:16:53;;;;;;;0.47;0.47;;;;;;;;;;5032215;28;20103;-65
2022/05/29 00:19:23;;;;;;;0.38;0.38;;;;;;;;;;5032272;28;20144;-65
2022/05/29 00:21:52;;;;;;;0.50;0.50;;;;;;;;;;5031525;28;20140;-65
2022/05/29 00:24:20;;;;;;;0.77;0.73;;;;;;;;;;5031565;28;20053;-65
2022/05/29 00:26:48;;;;;;;0.13;0.13;;;;;;;;;;5030510;28;20132;-66
2022/05/29 00:29:17;;;;;;;2.08;0.60;;;;;;;;;;5031567;28;20077;-67
2022/05/29 00:31:53;;;;;;;0.10;0.10;;;;;;;;;;5026058;28;20042;-67
2022/05/29 00:34:23;;;;;;;0.22;0.22;;;;;;;;;;5025318;28;20076;-65
2022/05/29 00:36:51;;;;;;;0.70;0.70;;;;;;;;;;5025561;28;20096;-66
2022/05/29 00:39:19;;;;;;;0.50;0.50;;;;;;;;;;5028628;28;20077;-65
2022/05/29 00:41:48;;;;;;;0.73;0.50;;;;;;;;;;5029918;28;20173;-67
2022/05/29 00:44:17;;;;;;;0.70;0.35;;;;;;;;;;5030424;28;20547;-65
2022/05/29 00:46:47;;;;;;;0.13;0.10;;;;;;;;;;5028603;28;20060;-65
2022/05/29 00:49:16;;;;;;;5.03;0.82;;;;;;;;;;5029797;28;20104;-65
2022/05/29 00:51:48;;;;;;;1.60;0.70;;;;;;;;;;5048723;28;20111;-65
2022/05/29 00:54:17;;;;;;;0.30;0.30;;;;;;;;;;5052471;28;20049;-65
2022/05/29 00:56:45;;;;;;;0.52;0.52;;;;;;;;;;5049322;28;20473;-65
2022/05/29 00:59:16;;;;;;;1.45;1.27;;;;;;;;;;5047131;28;20076;-67
2022/05/29 01:01:44;;;;;;;0.30;0.25;;;;;;;;;;5053186;28;20503;-65
2022/05/29 01:04:13;;;;;;;1.00;1.00;;;;;;;;;;5051849;28;20169;-65
2022/05/29 01:06:42;;;;;;;0.60;0.60;;;;;;;;;;5048198;28;20071;-65
2022/05/29 01:09:12;;;;;;;0.32;0.32;;;;;;;;;;5053479;28;20040;-66
2022/05/29 01:11:49;;;;;;;0.32;0.32;;;;;;;;;;5048559;28;20056;-65
2022/05/29 01:14:21;;;;;;;0.88;0.80;;;;;;;;;;5046689;28;20128;-67
2022/05/29 01:16:56;;;;;;;1.38;1.02;;;;;;;;;;5051317;28;20183;-65
2022/05/29 01:19:45;;;;;;;0.57;0.57;;;;;;;;;;5045241;28;20256;-65
2022/05/29 01:22:30;;;;;;;1.00;0.82;;;;;;;;;;5023232;28;20124;-65
2022/05/29 01:25:07;;;;;;;1.95;1.02;;;;;;;;;;5046882;28;20083;-65
2022/05/29 01:27:49;;;;;;;0.13;0.13;;;;;;;;;;5048187;28;20065;-65
2022/05/29 01:30:21;;;;;;;0.63;0.63;;;;;;;;;;5047237;28;20468;-66
2022/05/29 01:32:53;;;;;;;0.57;0.57;;;;;;;;;;5038824;28;20041;-65
2022/05/29 01:35:24;;;;;;;1.13;0.60;;;;;;;;;;5057226;28;20526;-65
2022/05/29 01:37:57;;;;;;;0.50;0.50;;;;;;;;;;5049080;28;20132;-65
2022/05/29 01:40:31;;;;;;;0.93;0.93;;;;;;;;;;5050356;28;20041;-65
2022/05/29 01:43:04;;;;;;;0.40;0.40;;;;;;;;;;5038494;28;20045;-65
2022/05/29 01:45:53;;;;;;;1.05;0.98;;;;;;;;;;5049169;28;20061;-67
2022/05/29 01:48:25;;;;;;;0.47;0.47;;;;;;;;;;5041031;28;20059;-65
2022/05/29 01:50:56;;;;;;;0.40;0.40;;;;;;;;;;5042773;28;20493;-65
2022/05/29 01:53:25;;;;;;;1.25;0.25;;;;;;;;;;5047081;28;20049;-65
2022/05/29 01:55:56;;;;;;;1.58;1.33;;;;;;;;;;5052188;28;20080;-65
2022/05/29 01:58:27;;;;;;;0.32;0.32;;;;;;;;;;5046450;28;20077;-65
2022/05/29 02:00:59;;;;;;;0.47;0.38;;;;;;;;;;5037858;28;20144;-65
2022/05/29 02:03:31;;;;;;;0.20;0.20;;;;;;;;;;5047696;28;20072;-65
2022/05/29 02:06:02;;;;;;;1.20;1.10;;;;;;;;;;5048514;28;20049;-65
2022/05/29 02:08:34;;;;;;;1.98;0.45;;;;;;;;;;5045969;28;20550;-65
2022/05/29 02:11:06;;;;;;;0.52;0.52;;;;;;;;;;5049062;28;20069;-65
2022/05/29 02:13:37;;;;;;;0.60;0.60;;;;;;;;;;5047955;28;20095;-65
2022/05/29 02:16:11;;;;;;;0.50;0.50;;;;;;;;;;5048710;28;20145;-65
2022/05/29 02:18:43;;;;;;;0.30;0.30;;;;;;;;;;5048596;28;20389;-65
2022/05/29 02:21:14;;;;;;;0.38;0.22;;;;;;;;;;5045669;28;20052;-66
2022/05/29 02:23:45;;;;;;;0.40;0.40;;;;;;;;;;5047280;28;20099;-67
2022/05/29 02:26:16;;;;;;;0.63;0.63;;;;;;;;;;5045698;28;20074;-65
2022/05/29 02:28:48;;;;;;;0.60;0.60;;;;;;;;;;5046769;28;20103;-65
2022/05/29 02:31:22;;;;;;;0.95;0.82;;;;;;;;;;5047864;28;20052;-65
2022/05/29 02:33:57;;;;;;;0.80;0.60;;;;;;;;;;5046825;28;20153;-65
2022/05/29 02:36:29;;;;;;;0.65;0.65;;;;;;;;;;5050206;28;20076;-64
2022/05/29 02:39:04;;;;;;;0.75;0.75;;;;;;;;;;5048020;28;20202;-65
2022/05/29 02:41:39;;;;;;;2.30;1.38;;;;;;;;;;5046635;28;20041;-65
2022/05/29 02:44:10;;;;;;;0.65;0.65;;;;;;;;;;5047382;28;20179;-66
2022/05/29 02:46:43;;;;;;;0.50;0.50;;;;;;;;;;5048939;28;20045;-65
2022/05/29 02:49:14;;;;;;;0.52;0.52;;;;;;;;;;5046018;28;20497;-65
2022/05/29 02:51:46;;;;;;;0.22;0.20;;;;;;;;;;5045649;28;20061;-65
2022/05/29 02:54:21;;;;;;;0.22;0.22;;;;;;;;;;5050142;28;20068;-65
2022/05/29 02:56:49;;;;;;;0.43;0.43;;;;;;;;;;5040005;28;20047;-65
2022/05/29 02:59:18;;;;;;;0.50;0.25;;;;;;;;;;5044927;28;20120;-65
2022/05/29 03:01:51;;;;;;;1.15;0.80;;;;;;;;;;5047784;28;20102;-65
2022/05/29 03:04:26;;;;;;;0.10;0.10;;;;;;;;;;5050275;28;20075;-65
2022/05/29 03:06:56;;;;;;;1.52;0.45;;;;;;;;;;5048177;28;20087;-65
2022/05/29 03:09:31;;;;;;;2.60;0.45;;;;;;;;;;5049824;28;20453;-67
2022/05/29 03:11:59;;;;;;;0.65;0.65;;;;;;;;;;5046860;28;20076;-65
2022/05/29 03:14:33;;;;;;;1.70;1.40;;;;;;;;;;5048006;28;20057;-65
2022/05/29 03:17:11;;;;;;;0.22;0.22;;;;;;;;;;5049702;28;20049;-65
2022/05/29 03:19:46;;;;;;;0.35;0.35;;;;;;;;;;5046660;28;20063;-65
2022/05/29 03:22:17;;;;;;;1.00;0.57;;;;;;;;;;5047599;28;20473;-67
2022/05/29 03:24:50;;;;;;;0.40;0.28;;;;;;;;;;5047428;28;20091;-65
2022/05/29 03:27:22;;;;;;;1.65;0.45;;;;;;;;;;5049270;28;20045;-65
2022/05/29 03:29:53;;;;;;;0.65;0.47;;;;;;;;;;5046640;28;20053;-65
2022/05/29 03:32:23;;;;;;;0.75;0.75;;;;;;;;;;5049254;28;20049;-65
2022/05/29 03:34:53;;;;;;;0.50;0.50;;;;;;;;;;5047834;28;20053;-63
2022/05/29 03:37:21;;;;;;;0.82;0.77;;;;;;;;;;5050397;28;20580;-63
2022/05/29 03:39:49;;;;;;;2.55;0.50;;;;;;;;;;5048351;28;20049;-63
2022/05/29 03:42:18;;;;;;;3.50;0.45;;;;;;;;;;5048368;28;20131;-63
2022/05/29 03:44:46;;;;;;;0.35;0.35;;;;;;;;;;5047827;28;20194;-63
2022/05/29 03:47:15;;;;;;;0.50;0.50;;;;;;;;;;5043074;28;20480;-63
2022/05/29 03:49:44;;;;;;;0.25;0.25;;;;;;;;;;5049636;28;20103;-63
2022/05/29 03:52:13;;;;;;;0.65;0.60;;;;;;;;;;5048775;28;20042;-63
2022/05/29 03:54:41;;;;;;;1.88;0.93;;;;;;;;;;5056950;28;20044;-63
2022/05/29 03:57:09;;;;;;;0.93;0.32;;;;;;;;;;5052637;28;20088;-63
2022/05/29 03:59:38;;;;;;;1.00;0.52;;;;;;;;;;5055216;28;20080;-63
2022/05/29 04:02:06;;;;;;;2.03;0.32;;;;;;;;;;5045024;28;20172;-63
2022/05/29 04:04:34;;;;;;;0.68;0.68;;;;;;;;;;5052711;28;20083;-63
2022/05/29 04:07:04;;;;;;;0.57;0.40;;;;;;;;;;5049587;28;20295;-64
2022/05/29 04:12:19;;;;;;;0.82;0.35;;;;;;;;;;5052654;28;20071;-63
2022/05/29 04:14:47;;;;;;;0.30;0.30;;;;;;;;;;5051907;28;20075;-64
2022/05/29 04:17:16;;;;;;;0.30;0.30;;;;;;;;;;5052055;28;20155;-65
2022/05/29 04:19:45;;;;;;;0.15;0.15;;;;;;;;;;5051285;28;20135;-64
2022/05/29 04:22:17;;;;;;;0.98;0.85;;;;;;;;;;5052981;28;20617;-63
2022/05/29 04:24:45;;;;;;;0.20;0.20;;;;;;;;;;5051764;28;20103;-64
2022/05/29 04:27:15;;;;;;;1.98;0.32;;;;;;;;;;5050129;28;20079;-64
2022/05/29 04:29:43;;;;;;;0.52;0.40;;;;;;;;;;5049202;28;20080;-64
2022/05/29 04:34:58;;;;;;;1.33;0.50;;;;;;;;;;5049605;28;20076;-65
2022/05/29 04:37:29;;;;;;;0.98;0.20;;;;;;;;;;5048056;28;20120;-65
2022/05/29 04:39:57;;;;;;;2.58;0.98;;;;;;;;;;5050557;28;20084;-64
2022/05/29 04:42:26;;;;;;;0.70;0.35;;;;;;;;;;5042770;28;20041;-63
2022/05/29 04:44:54;;;;;;;0.63;0.60;;;;;;;;;;5052529;28;20504;-63
2022/05/29 04:47:22;;;;;;;0.10;0.10;;;;;;;;;;5046110;28;20080;-65
2022/05/29 04:49:51;;;;;;;0.65;0.65;;;;;;;;;;5047924;28;20346;-63
2022/05/29 04:52:19;;;;;;;0.17;0.17;;;;;;;;;;5049039;28;20041;-65
2022/05/29 04:54:49;;;;;;;0.70;0.50;;;;;;;;;;5043434;28;20091;-67
2022/05/29 04:57:18;;;;;;;0.70;0.60;;;;;;;;;;5049604;28;20048;-66
2022/05/29 04:59:47;;;;;;;0.60;0.47;;;;;;;;;;5049056;28;20143;-65
2022/05/29 05:02:16;;;;;;;0.98;0.73;;;;;;;;;;5053104;28;20124;-63
2022/05/29 05:04:44;;;;;;;0.57;0.57;;;;;;;;;;5050188;28;20492;-63
2022/05/29 05:07:13;;;;;;;3.25;0.93;;;;;;;;;;5041857;28;20065;-65
2022/05/29 05:09:41;;;;;;;0.50;0.50;;;;;;;;;;5050305;28;20053;-63
2022/05/29 05:12:12;;;;;;;0.55;0.38;;;;;;;;;;5046438;28;20052;-64
2022/05/29 05:14:41;;;;;;;2.15;0.80;;;;;;;;;;5048379;28;20044;-64
2022/05/29 05:17:09;;;;;;;1.73;0.68;;;;;;;;;;5049068;28;20041;-64
2022/05/29 05:19:38;;;;;;;2.38;0.50;;;;;;;;;;5049802;28;20055;-64
2022/05/29 05:22:08;;;;;;;5.90;0.68;;;;;;;;;;5045335;28;20063;-64
2022/05/29 05:24:38;;;;;;;1.35;0.60;;;;;;;;;;5046604;28;20080;-64
2022/05/29 05:27:07;;;;;;;0.63;0.60;;;;;;;;;;5047412;28;20049;-64
2022/05/29 05:29:43;;;;;;;0.32;0.32;;;;;;;;;;5049490;28;20049;-64
2022/05/29 05:32:13;;;;;;;1.50;0.50;;;;;;;;;;5048842;28;20052;-66
2022/05/29 05:34:42;;;;;;;0.68;0.40;;;;;;;;;;5047563;28;20045;-64
2022/05/29 05:37:10;;;;;;;0.38;0.38;;;;;;;;;;5032510;28;20049;-64
2022/05/29 05:39:39;;;;;;;0.30;0.30;;;;;;;;;;5044808;28;20126;-64
2022/05/29 05:42:08;;;;;;;0.40;0.35;;;;;;;;;;5044382;28;20427;-64
2022/05/29 05:44:37;;;;;;;0.75;0.52;;;;;;;;;;5047167;28;20148;-64
2022/05/29 05:47:07;;;;;;;0.30;0.30;;;;;;;;;;5045006;28;20076;-64
2022/05/29 05:49:37;;;;;;;0.35;0.35;;;;;;;;;;5044937;28;20076;-64
2022/05/29 05:52:06;;;;;;;0.63;0.40;;;;;;;;;;5046423;28;20399;-64
2022/05/29 05:54:35;;;;;;;0.40;0.38;;;;;;;;;;5043260;28;20136;-65
2022/05/29 05:57:06;;;;;;;0.20;0.20;;;;;;;;;;5045805;28;20049;-65
2022/05/29 05:59:36;;;;;;;0.47;0.47;;;;;;;;;;5044510;28;20059;-65
2022/05/29 06:02:05;;;;;;;1.17;0.40;;;;;;;;;;5044719;28;20045;-66
2022/05/29 06:04:35;;;;;;;1.05;0.68;;;;;;;;;;5049061;28;20147;-66
2022/05/29 06:07:04;;;;;;;0.47;0.47;;;;;;;;;;5040891;28;20041;-65
2022/05/29 06:09:33;;;;;;;0.30;0.30;;;;;;;;;;5043829;28;20044;-65
2022/05/29 06:12:03;;;;;;;0.45;0.30;;;;;;;;;;5044894;28;20045;-65
2022/05/29 06:14:34;;;;;;;1.55;0.80;;;;;;;;;;5045393;28;20088;-65
2022/05/29 06:17:03;;;;;;;1.73;0.63;;;;;;;;;;5040552;28;20041;-65
2022/05/29 06:19:31;;;;;;;0.57;0.30;;;;;;;;;;5043101;28;20076;-65
2022/05/29 06:22:02;;;;;;;0.20;0.20;;;;;;;;;;5046927;28;20123;-64
2022/05/29 06:24:31;;;;;;;0.88;0.45;;;;;;;;;;5042410;28;20120;-65
2022/05/29 06:26:59;;;;;;;0.40;0.35;;;;;;;;;;5046062;28;20045;-64
2022/05/29 06:29:28;;;;;;;0.10;0.10;;;;;;;;;;5046351;28;20086;-65
2022/05/29 06:32:00;;;;;;;0.30;0.30;;;;;;;;;;5047314;28;20472;-65
2022/05/29 06:34:29;;;;;;;0.68;0.68;;;;;;;;;;5041861;28;20056;-65
2022/05/29 06:36:58;;;;;;;0.32;0.32;;;;;;;;;;5046599;28;20605;-65
2022/05/29 06:39:28;;;;;;;1.95;0.93;;;;;;;;;;5045007;28;20522;-65
2022/05/29 06:41:57;;;;;;;0.45;0.45;;;;;;;;;;5054867;28;20049;-64
2022/05/29 06:44:25;;;;;;;0.47;0.47;;;;;;;;;;5045962;28;20144;-65
2022/05/29 06:46:54;;;;;;;0.85;0.65;;;;;;;;;;5046665;28;20049;-65
2022/05/29 06:49:22;;;;;;;0.20;0.20;;;;;;;;;;5039408;28;20483;-65
2022/05/29 06:51:51;;;;;;;0.68;0.68;;;;;;;;;;5039346;28;20155;-65
2022/05/29 06:54:20;;;;;;;0.20;0.20;;;;;;;;;;5044061;28;20053;-65
2022/05/29 06:56:49;;;;;;;0.75;0.47;;;;;;;;;;5044714;28;20080;-65
2022/05/29 06:59:20;;;;;;;0.30;0.30;;;;;;;;;;5041077;28;20408;-66
2022/05/29 07:07:21;;;;;;;0.43;0.43;;;;;;;;;;5032479;28;20410;-65
2022/05/29 07:09:50;;;;;;;0.20;0.20;;;;;;;;;;5044805;28;20068;-65
2022/05/29 07:12:22;;;;;;;0.70;0.68;;;;;;;;;;5045528;28;20747;-65
2022/05/29 07:14:53;;;;;;;0.88;0.60;;;;;;;;;;5042571;28;20048;-65
2022/05/29 07:17:22;;;;;;;4.00;1.60;;;;;;;;;;5044772;28;20540;-65
2022/05/29 07:19:51;;;;;;;1.15;0.98;;;;;;;;;;5045119;28;20535;-65
2022/05/29 07:22:19;;;;;;;0.68;0.55;;;;;;;;;;5047883;28;20451;-66
2022/05/29 07:24:48;;;;;;;0.50;0.32;;;;;;;;;;5047850;28;20140;-65
2022/05/29 07:27:17;;;;;;;0.50;0.47;;;;;;;;;;5036941;28;20049;-65
2022/05/29 07:29:47;;;;;;;0.60;0.60;;;;;;;;;;5052600;28;20088;-65
2022/05/29 07:32:16;;;;;;;1.33;0.75;;;;;;;;;;5051803;28;20459;-64
2022/05/29 07:34:44;;;;;;;0.77;0.35;;;;;;;;;;5053336;28;20135;-65
2022/05/29 07:37:16;;;;;;;2.95;0.90;;;;;;;;;;5048873;28;20060;-65
2022/05/29 07:39:45;;;;;;;0.30;0.30;;;;;;;;;;5049901;28;20088;-65
2022/05/29 07:45:02;;;;;;;1.55;0.75;;;;;;;;;;5049416;28;20141;-66
2022/05/29 07:47:36;;;;;;;0.57;0.57;;;;;;;;;;5042451;28;20049;-66
2022/05/29 07:50:06;;;;;;;0.60;0.60;;;;;;;;;;5047643;28;20060;-66
2022/05/29 07:52:35;;;;;;;0.47;0.47;;;;;;;;;;5043301;28;20080;-66
2022/05/29 07:55:04;;;;;;;2.53;0.50;;;;;;;;;;5052091;28;20056;-66
2022/05/29 07:57:33;;;;;;;0.77;0.77;;;;;;;;;;5049219;28;20114;-66
2022/05/29 08:00:05;;;;;;;0.52;0.52;;;;;;;;;;5044727;28;20057;-66
2022/05/29 08:02:34;;;;;;;0.47;0.43;;;;;;;;;;5045357;28;20106;-66
2022/05/29 08:05:04;;;;;;;0.52;0.47;;;;;;;;;;5038828;28;20052;-66
2022/05/29 08:07:32;;;;;;;1.02;0.70;;;;;;;;;;5039835;28;20048;-66
2022/05/29 08:10:01;;;;;;;5.68;1.73;;;;;;;;;;5048785;28;20044;-66
2022/05/29 08:12:30;;;;;;;0.40;0.25;;;;;;;;;;5049037;28;20064;-68
2022/05/29 08:14:59;;;;;;;0.63;0.57;;;;;;;;;;5041230;28;20053;-66
2022/05/29 08:17:29;;;;;;;2.10;0.60;;;;;;;;;;5045794;28;20163;-66
2022/05/29 08:19:58;;;;;;;2.47;0.60;;;;;;;;;;5049795;28;20055;-67
2022/05/29 08:22:27;;;;;;;0.45;0.45;;;;;;;;;;5047968;28;20055;-66
2022/05/29 08:30:41;;;;;;;0.40;0.40;;;;;;;;;;5048975;28;20107;-66
2022/05/29 08:33:12;;;;;;;0.32;0.32;;;;;;;;;;5043069;28;20052;-66
2022/05/29 08:35:42;;;;;;;0.52;0.40;;;;;;;;;;5053726;28;20099;-67
2022/05/29 08:38:12;;;;;;;1.50;0.47;;;;;;;;;;5045402;28;20187;-68
2022/05/29 08:40:42;;;;;;;0.45;0.40;;;;;;;;;;5044783;28;20058;-67
2022/05/29 08:43:12;;;;;;;0.52;0.52;;;;;;;;;;5040738;28;20045;-67
2022/05/29 08:45:41;;;;;;;0.60;0.60;;;;;;;;;;5045121;28;20053;-66
2022/05/29 08:48:11;;;;;;;0.50;0.50;;;;;;;;;;5046496;28;20361;-66
2022/05/29 08:50:44;;;;;;;1.20;0.47;;;;;;;;;;5041510;28;20075;-66
2022/05/29 08:53:18;;;;;;;1.27;0.60;;;;;;;;;;5046029;28;20528;-66
2022/05/29 08:55:49;;;;;;;1.00;0.85;;;;;;;;;;5038241;28;20060;-66
2022/05/29 08:58:23;;;;;;;0.50;0.43;;;;;;;;;;5049243;28;20512;-66
2022/05/29 09:00:57;;;;;;;1.20;0.43;;;;;;;;;;5041533;28;20045;-66
2022/05/29 09:03:37;;;;;;;1.58;0.63;;;;;;;;;;5044969;28;20053;-66
2022/05/29 09:06:11;;;;;;;2.00;0.82;;;;;;;;;;5044958;28;20059;-66
2022/05/29 09:08:42;;;;;;;0.95;0.40;;;;;;;;;;5045456;28;20397;-67
2022/05/29 09:11:13;;;;;;;0.70;0.60;;;;;;;;;;5041301;28;20049;-67
2022/05/29 09:13:46;;;;;;;1.30;1.17;;;;;;;;;;5047259;28;20056;-67
2022/05/29 09:16:17;;;;;;;0.57;0.57;;;;;;;;;;5045283;28;20041;-66
2022/05/29 09:18:51;;;;;;;0.75;0.38;;;;;;;;;;5033160;28;20506;-67
2022/05/29 09:21:46;;;;;;;1.05;0.40;;;;;;;;;;5036064;28;20044;-66
2022/05/29 09:24:18;;;;;;;0.50;0.50;;;;;;;;;;5040054;28;20049;-67
2022/05/29 09:26:47;;;;;;;1.75;0.77;;;;;;;;;;5035528;28;20048;-67
2022/05/29 09:29:16;;;;;;;1.05;0.95;;;;;;;;;;5043406;28;20045;-67
2022/05/29 09:31:44;;;;;;;1.13;0.73;;;;;;;;;;5039137;28;20095;-66
2022/05/29 09:34:15;;;;;;;0.30;0.30;;;;;;;;;;5048147;28;20088;-67
2022/05/29 09:36:51;;;;;;;0.52;0.50;;;;;;;;;;5045490;28;20044;-66
2022/05/29 09:39:24;;;;;;;0.90;0.40;;;;;;;;;;5047047;28;20048;-67
2022/05/29 09:41:57;;;;;;;0.98;0.60;;;;;;;;;;5039396;28;20411;-67
2022/05/29 09:44:27;;;;;;;0.40;0.30;;;;;;;;;;5046049;28;20114;-68
2022/05/29 09:49:40;;;;;;;0.55;0.55;;;;;;;;;;5045389;28;20049;-67
2022/05/29 09:50:01;;;;;;;0.40;0.40;;;;;;;;;;5038875;28;20057;-67
2022/05/29 09:52:32;;;;;;;2.72;0.45;;;;;;;;;;5043681;28;20060;-67
2022/05/29 09:55:05;;;;;;;0.63;0.63;;;;;;;;;;5048090;28;20045;-67
2022/05/29 09:57:35;;;;;;;1.10;0.35;;;;;;;;;;5041838;28;20059;-67
2022/05/29 10:00:08;;;;;;;6.60;0.28;;;;;;;;;;5042462;28;20040;-67
2022/05/29 10:02:38;;;;;;;0.88;0.60;;;;;;;;;;5042771;28;20364;-67
2022/05/29 10:05:10;;;;;;;0.65;0.65;;;;;;;;;;5045935;28;20044;-66
2022/05/29 10:07:41;;;;;;;0.73;0.70;;;;;;;;;;5041571;28;20049;-67
2022/05/29 10:10:11;;;;;;;0.25;0.25;;;;;;;;;;5040787;28;20131;-67
2022/05/29 10:12:41;;;;;;;0.65;0.38;;;;;;;;;;5044370;28;20084;-67
2022/05/29 10:15:34;;;;;;;0.20;0.20;;;;;;;;;;5042145;28;20041;-66
2022/05/29 10:18:05;;;;;;;0.32;0.32;;;;;;;;;;5043626;28;20455;-67
2022/05/29 10:20:36;;;;;;;0.30;0.28;;;;;;;;;;5044757;28;20041;-67
2022/05/29 10:23:07;;;;;;;0.77;0.52;;;;;;;;;;5045776;28;20044;-67
2022/05/29 10:25:37;;;;;;;0.43;0.43;;;;;;;;;;5040773;28;20041;-67
2022/05/29 10:28:11;;;;;;;0.22;0.22;;;;;;;;;;5041034;28;20045;-67
2022/05/29 10:30:43;;;;;;;0.52;0.52;;;;;;;;;;5042993;28;20497;-67
2022/05/29 10:33:14;;;;;;;0.32;0.20;;;;;;;;;;5039331;28;20056;-67
2022/05/29 10:35:44;;;;;;;0.47;0.40;;;;;;;;;;5044050;28;20047;-67
2022/05/29 10:38:23;;;;;;;0.47;0.40;;;;;;;;;;5041027;28;20138;-67
2022/05/29 10:40:53;;;;;;;0.70;0.70;;;;;;;;;;5043048;28;20096;-66
2022/05/29 10:43:45;;;;;;;0.20;0.20;;;;;;;;;;5046576;28;20080;-67
2022/05/29 10:46:18;;;;;;;0.30;0.30;;;;;;;;;;5027051;28;20052;-67
2022/05/29 10:49:00;;;;;;;1.38;0.40;;;;;;;;;;5040133;28;20057;-66
2022/05/29 10:51:35;;;;;;;0.77;0.68;;;;;;;;;;5043749;28;20134;-66
2022/05/29 10:54:14;;;;;;;0.50;0.50;;;;;;;;;;5046819;28;20048;-67
2022/05/29 10:56:50;;;;;;;0.93;0.90;;;;;;;;;;5042774;28;20045;-69
2022/05/29 10:59:25;;;;;;;0.57;0.57;;;;;;;;;;5044927;28;20106;-68
2022/05/29 11:05:03;;;;;;;0.50;0.50;;;;;;;;;;5040816;28;20049;-68
2022/05/29 11:07:42;;;;;;;0.52;0.52;;;;;;;;;;5047496;28;20397;-68
2022/05/29 11:10:21;;;;;;;0.90;0.73;;;;;;;;;;5048974;28;20272;-67
2022/05/29 11:13:02;;;;;;;0.40;0.40;;;;;;;;;;5047836;28;20136;-67
2022/05/29 11:15:36;;;;;;;0.35;0.35;;;;;;;;;;5048749;28;20488;-67
2022/05/29 11:18:31;;;;;;;0.60;0.40;;;;;;;;;;5046684;28;20044;-67
2022/05/29 11:21:06;;;;;;;1.20;0.32;;;;;;;;;;5045589;28;20044;-66
2022/05/29 11:23:55;;;;;;;2.83;1.80;;;;;;;;;;5049424;28;20043;-66
2022/05/29 11:26:27;;;;;;;0.68;0.68;;;;;;;;;;5044051;28;20085;-67
2022/05/29 11:29:05;;;;;;;2.08;0.32;;;;;;;;;;5050202;28;20053;-66
2022/05/29 11:31:57;;;;;;;0.30;0.30;;;;;;;;;;5053576;28;20049;-66
2022/05/29 11:34:34;;;;;;;0.52;0.20;;;;;;;;;;5048226;28;20044;-66
2022/05/29 11:37:12;;;;;;;0.30;0.20;;;;;;;;;;5049993;28;20083;-66
2022/05/29 11:39:43;;;;;;;0.13;0.13;;;;;;;;;;5046793;28;20049;-66
2022/05/29 11:42:15;;;;;;;0.17;0.17;;;;;;;;;;5045195;28;20045;-67
2022/05/29 11:44:51;;;;;;;0.10;0.10;;;;;;;;;;5043872;28;20075;-66
2022/05/29 11:53:01;;;;;;;0.20;0.20;;;;;;;;;;5045658;28;20412;-66
2022/05/29 11:55:34;;;;;;;0.25;0.25;;;;;;;;;;5047292;28;20424;-67
2022/05/29 11:58:04;;;;;;;1.63;1.00;;;;;;;;;;5048002;28;20053;-68
2022/05/29 12:00:36;;;;;;;0.57;0.57;;;;;;;;;;5041833;28;20142;-67
2022/05/29 12:03:12;;;;;;;0.25;0.22;;;;;;;;;;5044571;28;20041;-66
2022/05/29 12:05:45;;;;;;;1.17;1.00;;;;;;;;;;5046068;28;20265;-66
2022/05/29 12:08:18;;;;;;;0.40;0.40;;;;;;;;;;5045526;28;20400;-65
2022/05/29 12:10:54;;;;;;;0.55;0.52;;;;;;;;;;5041181;28;20111;-66
2022/05/29 12:13:25;;;;;;;0.22;0.22;;;;;;;;;;5046764;28;20140;-67
2022/05/29 12:15:56;;;;;;;1.52;0.63;;;;;;;;;;5045403;28;20053;-67
2022/05/29 12:18:27;;;;;;;0.35;0.32;;;;;;;;;;5045561;28;20412;-67
2022/05/29 12:20:58;;;;;;;1.13;0.88;;;;;;;;;;5043575;28;20041;-67
2022/05/29 12:23:31;;;;;;;0.40;0.40;;;;;;;;;;5045616;28;20063;-65
2022/05/29 12:26:06;;;;;;;0.30;0.20;;;;;;;;;;5044106;28;20148;-65
2022/05/29 12:28:35;;;;;;;;;;;;;;;;;;5038521;28;20106;-65
2022/05/29 12:31:07;;;;;;;0.32;0.25;;;;;;;;;;5038858;28;20307;-65
2022/05/29 12:33:36;;;;;;;0.80;0.60;;;;;;;;;;5043832;28;20057;-65
2022/05/29 12:36:10;;;;;;;0.95;0.55;;;;;;;;;;5040525;28;20080;-66
2022/05/29 12:38:48;;;;;;;1.30;1.08;;;;;;;;;;5036868;28;20158;-65
2022/05/29 12:41:24;;;;;;;1.30;0.52;;;;;;;;;;5036836;28;20045;-66
2022/05/29 12:44:06;;;;;;;0.28;0.28;;;;;;;;;;5047736;28;20136;-65
2022/05/29 12:46:42;;;;;;;0.45;0.45;;;;;;;;;;5046398;28;20127;-65
2022/05/29 12:49:20;;;;;;;0.30;0.30;;;;;;;;;;5036526;28;20061;-65
2022/05/29 12:52:02;;;;;;;0.50;0.50;;;;;;;;;;5037002;28;20057;-66
2022/05/29 12:55:01;;;;;;;0.50;0.47;;;;;;;;;;5041001;28;20052;-66
2022/05/29 12:57:50;;;;;;;0.13;0.13;;;;;;;;;;5038777;28;20116;-67
2022/05/29 13:00:32;;;;;;;2.42;0.60;;;;;;;;;;5038757;28;20045;-66
2022/05/29 13:03:25;;;;;;;0.47;0.47;;;;;;;;;;5045723;28;20061;-67
2022/05/29 13:06:06;;;;;;;0.20;0.20;;;;;;;;;;5043471;28;20488;-66
2022/05/29 13:08:42;;;;;;;1.58;0.65;;;;;;;;;;5044883;28;20144;-67
2022/05/29 13:11:11;;;;;;;1.77;0.20;;;;;;;;;;5044758;28;20099;-67
2022/05/29 13:13:43;;;;;;;0.47;0.40;;;;;;;;;;5045777;28;20084;-67
2022/05/29 13:16:24;;;;;;;0.20;0.20;;;;;;;;;;5041510;28;20045;-67
2022/05/29 13:19:06;;;;;;;0.20;0.20;;;;;;;;;;5041211;28;21239;-67
2022/05/29 13:21:52;;;;;;;0.40;0.40;;;;;;;;;;5040667;28;20053;-67
2022/05/29 13:24:21;;;;;;;0.20;0.20;;;;;;;;;;5041029;28;20059;-67
2022/05/29 13:27:16;;;;;;;0.20;0.20;;;;;;;;;;5041437;28;20067;-68
2022/05/29 13:29:46;;;;;;;2.33;0.70;;;;;;;;;;5020295;28;20061;-68
2022/05/29 13:32:20;;;;;;;0.30;0.30;;;;;;;;;;5037596;28;20404;-68
2022/05/29 13:34:49;;;;;;;0.43;0.43;;;;;;;;;;5043880;28;20083;-68
2022/05/29 13:37:39;;;;;;;0.28;0.28;;;;;;;;;;5045549;28;20126;-67
2022/05/29 13:40:09;;;;;;;0.52;0.52;;;;;;;;;;5040590;28;20127;-68
2022/05/29 13:42:39;;;;;;;0.22;0.22;;;;;;;;;;5049359;28;20492;-68
2022/05/29 13:45:28;;;;;;;0.25;0.25;;;;;;;;;;5048928;28;20095;-68
2022/05/29 13:48:13;;;;;;;0.30;0.30;;;;;;;;;;5017853;28;20550;-68
2022/05/29 13:50:41;;;;;;;;;;;;;;;;;;5038588;28;20083;-68
2022/05/29 13:53:13;;;;;;;0.10;0.10;;;;;;;;;;5043854;28;19928;-69
2022/05/29 13:55:54;;;;;;;0.10;0.10;;;;;;;;;;5038031;28;20049;-68
2022/05/29 14:04:07;;;;;;;0.38;0.30;;;;;;;;;;5043068;28;20057;-67
2022/05/29 14:07:11;;;;;;;0.20;0.20;;;;;;;;;;5042428;28;20061;-67
2022/05/29 14:09:41;;;;;;;0.30;0.30;;;;;;;;;;5046337;28;20071;-67
2022/05/29 14:12:14;;;;;;;1.75;0.45;;;;;;;;;;5043790;28;20046;-67
2022/05/29 14:14:44;;;;;;;0.32;0.32;;;;;;;;;;5041933;28;20377;-67
2022/05/29 14:17:17;;;;;;;0.20;0.20;;;;;;;;;;5045533;28;20071;-66
2022/05/29 14:19:54;;;;;;;0.20;0.20;;;;;;;;;;5044956;28;20081;-67
2022/05/29 14:22:37;;;;;;;0.30;0.30;;;;;;;;;;5047501;28;20111;-66
2022/05/29 14:25:22;;;;;;;0.10;0.10;;;;;;;;;;5042097;28;20040;-67
2022/05/29 14:28:05;;;;;;;1.45;0.52;;;;;;;;;;5044798;28;20041;-67
2022/05/29 14:30:48;;;;;;;1.23;0.30;;;;;;;;;;5040785;28;20087;-68
2022/05/29 14:33:23;;;;;;;0.25;0.25;;;;;;;;;;5046003;28;20044;-67
2022/05/29 14:35:51;;;;;;;;;;;;;;;;;;5028818;28;20472;-68
2022/05/29 14:38:29;;;;;;;0.20;0.20;;;;;;;;;;5043353;28;19928;-68
2022/05/29 14:40:58;;;;;;;0.20;0.20;;;;;;;;;;5057429;28;20098;-68
2022/05/29 14:43:28;;;;;;;0.80;0.38;;;;;;;;;;5047675;28;20756;-68
2022/05/29 14:46:17;;;;;;;0.30;0.30;;;;;;;;;;5042947;28;20886;-68
2022/05/29 14:48:55;;;;;;;0.30;0.30;;;;;;;;;;5037259;28;20049;-68
2022/05/29 14:51:31;;;;;;;0.20;0.20;;;;;;;;;;5045512;28;20420;-68
2022/05/29 14:54:03;;;;;;;0.30;0.30;;;;;;;;;;5027374;28;20332;-68
2022/05/29 14:56:33;;;;;;;0.10;0.10;;;;;;;;;;5043236;28;20106;-68
2022/05/29 14:59:20;;;;;;;0.20;0.15;;;;;;;;;;5040900;28;20056;-67
2022/05/29 15:01:51;;;;;;;0.25;0.25;;;;;;;;;;5046327;28;20052;-69
2022/05/29 15:04:23;;;;;;;0.88;0.65;;;;;;;;;;5044989;28;20488;-69
2022/05/29 15:12:32;;;;;;;0.38;0.38;;;;;;;;;;5028813;28;20471;-68
2022/05/29 15:15:21;;;;;;;0.47;0.47;;;;;;;;;;5045041;28;20060;-68
2022/05/29 15:17:50;;;;;;;0.45;0.32;;;;;;;;;;5037448;28;20447;-69
2022/05/29 15:26:07;;;;;;;0.30;0.30;;;;;;;;;;5045238;28;20048;-69
2022/05/29 15:28:38;;;;;;;0.30;0.30;;;;;;;;;;5044812;28;20143;-68
2022/05/29 15:31:11;;;;;;;0.30;0.30;;;;;;;;;;5045402;28;20407;-68
2022/05/29 15:33:48;;;;;;;0.30;0.30;;;;;;;;;;5042787;28;20135;-69
2022/05/29 15:36:21;;;;;;;1.60;0.50;;;;;;;;;;5041202;28;20102;-68
2022/05/29 15:38:54;;;;;;;0.73;0.57;;;;;;;;;;5042962;28;20048;-68
2022/05/29 15:41:34;;;;;;;0.60;0.35;;;;;;;;;;5041910;28;20076;-69
2022/05/29 15:44:08;;;;;;;0.20;0.15;;;;;;;;;;5042710;28;20424;-71
2022/05/29 15:46:48;;;;;;;0.20;0.20;;;;;;;;;;5040146;28;20118;-71
2022/05/29 15:49:34;;;;;;;0.30;0.30;;;;;;;;;;5045241;28;20126;-72
2022/05/29 15:52:05;;;;;;;0.10;0.10;;;;;;;;;;5010802;28;20060;-72
2022/05/29 15:54:49;;;;;;;0.22;0.20;;;;;;;;;;5001323;28;20046;-71
2022/05/29 15:57:29;;;;;;;0.20;0.20;;;;;;;;;;5008990;28;20050;-71
2022/05/29 16:00:02;;;;;;;0.65;0.65;;;;;;;;;;5003627;28;20544;-71
2022/05/29 16:02:46;;;;;;;0.50;0.40;;;;;;;;;;5011175;28;20074;-71